createdAt,value
2018-12-02T00:01:07.904Z,11.60
2018-12-02T00:03:38.336Z,11.50
2018-12-02T00:06:07.635Z,11.30
2018-12-02T00:08:37.903Z,9.97
2018-12-02T00:11:07.210Z,11.70
2018-12-02T00:13:37.802Z,10.57
2018-12-02T00:16:07.504Z,9.60
2018-12-02T00:18:37.075Z,10.30
2018-12-02T00:21:07.728Z,9.87
2018-12-02T00:23:38.545Z,9.57
2018-12-02T00:26:08.139Z,11.13
2018-12-02T00:28:38.637Z,7.40
2018-12-02T00:31:08.016Z,3.90
2018-12-02T00:33:37.567Z,4.23
2018-12-02T00:36:07.624Z,3.20
2018-12-02T00:38:37.027Z,4.60
2018-12-02T00:41:06.973Z,4.90
2018-12-02T00:43:36.395Z,4.47
2018-12-02T00:46:06.823Z,8.80
2018-12-02T00:48:37.290Z,10.37
2018-12-02T00:51:06.999Z,7.87
2018-12-02T00:53:38.926Z,8.40
2018-12-02T00:56:07.131Z,7.50
2018-12-02T00:58:36.649Z,7.57
2018-12-02T01:01:06.358Z,8.20
2018-12-02T01:03:35.790Z,8.10
2018-12-02T01:06:05.331Z,7.67
2018-12-02T01:08:34.949Z,6.27
2018-12-02T01:11:04.212Z,8.10
2018-12-02T01:13:33.644Z,7.87
2018-12-02T01:16:03.205Z,6.57
2018-12-02T01:18:34.412Z,5.00
2018-12-02T01:21:06.698Z,4.87
2018-12-02T01:23:36.044Z,5.33
2018-12-02T01:26:07.315Z,3.50
2018-12-02T01:28:37.712Z,4.10
2018-12-02T01:31:07.430Z,3.50
2018-12-02T01:33:36.803Z,3.20
2018-12-02T01:36:06.670Z,4.00
2018-12-02T01:38:35.723Z,3.77
2018-12-02T01:41:05.224Z,3.60
2018-12-02T01:43:35.402Z,3.33
2018-12-02T01:46:05.871Z,3.00
2018-12-02T01:48:36.278Z,2.97
2018-12-02T01:51:05.992Z,3.23
2018-12-02T01:53:36.461Z,2.50
2018-12-02T01:56:07.522Z,2.60
2018-12-02T01:58:37.169Z,1.53
2018-12-02T02:01:06.986Z,1.60
2018-12-02T02:03:37.465Z,2.07
2018-12-02T02:06:06.794Z,1.60
2018-12-02T02:08:36.233Z,1.73
2018-12-02T02:11:06.527Z,2.40
2018-12-02T02:13:35.888Z,2.40
2018-12-02T02:16:06.967Z,1.70
2018-12-02T02:18:36.819Z,2.20
2018-12-02T02:21:07.738Z,1.90
2018-12-02T02:23:37.183Z,2.23
2018-12-02T02:26:07.967Z,2.40
2018-12-02T02:28:37.165Z,2.13
2018-12-02T02:31:06.943Z,3.00
2018-12-02T02:33:36.374Z,3.20
2018-12-02T02:36:06.403Z,4.53
2018-12-02T02:38:36.602Z,3.20
2018-12-02T02:41:07.170Z,2.93
2018-12-02T02:43:36.574Z,2.73
2018-12-02T02:46:06.304Z,2.90
2018-12-02T02:48:35.776Z,3.20
2018-12-02T02:51:06.511Z,4.37
2018-12-02T02:53:36.586Z,3.33
2018-12-02T02:56:06.207Z,3.37
2018-12-02T02:58:36.162Z,3.23
2018-12-02T03:01:05.965Z,2.80
2018-12-02T03:03:35.318Z,1.60
2018-12-02T03:06:06.740Z,2.20
2018-12-02T03:08:35.998Z,2.37
2018-12-02T03:11:05.275Z,2.47
2018-12-02T03:13:35.136Z,2.43
2018-12-02T03:16:04.558Z,3.40
2018-12-02T03:18:37.191Z,3.00
2018-12-02T03:21:06.553Z,2.60
2018-12-02T03:23:36.300Z,3.20
2018-12-02T03:26:05.636Z,3.03
2018-12-02T03:28:35.995Z,3.10
2018-12-02T03:31:05.502Z,3.50
2018-12-02T03:33:36.976Z,4.90
2018-12-02T03:36:06.529Z,4.00
2018-12-02T03:38:37.453Z,5.23
2018-12-02T03:41:07.480Z,5.83
2018-12-02T03:43:36.784Z,4.90
2018-12-02T03:46:06.340Z,3.50
2018-12-02T03:48:35.921Z,4.70
2018-12-02T03:51:06.202Z,3.13
2018-12-02T03:53:35.504Z,3.80
2018-12-02T03:56:04.904Z,3.60
2018-12-02T03:58:34.430Z,5.23
2018-12-02T04:01:04.544Z,6.67
2018-12-02T04:03:34.383Z,13.43
2018-12-02T04:06:06.902Z,10.50
2018-12-02T04:08:38.373Z,6.50
2018-12-02T04:11:08.510Z,4.23
2018-12-02T04:13:38.631Z,2.67
2018-12-02T04:16:08.894Z,2.53
2018-12-02T04:18:38.664Z,3.50
2018-12-02T04:21:08.355Z,5.40
2018-12-02T04:23:37.961Z,4.57
2018-12-02T04:26:10.221Z,5.30
2018-12-02T04:28:41.844Z,4.10
2018-12-02T04:31:11.543Z,3.60
2018-12-02T04:33:41.779Z,3.37
2018-12-02T04:36:11.204Z,4.40
2018-12-02T04:38:41.367Z,11.37
2018-12-02T04:41:10.786Z,9.97
2018-12-02T04:43:41.119Z,10.03
2018-12-02T04:46:11.214Z,8.67
2018-12-02T04:48:40.712Z,7.50
2018-12-02T04:51:12.067Z,7.27
2018-12-02T04:53:41.428Z,6.30
2018-12-02T04:56:11.180Z,6.50
2018-12-02T04:58:42.422Z,5.70
2018-12-02T05:01:13.772Z,5.03
2018-12-02T05:03:44.172Z,4.17
2018-12-02T05:06:13.629Z,2.97
2018-12-02T05:08:42.835Z,3.00
2018-12-02T05:11:12.789Z,4.43
2018-12-02T05:13:42.985Z,3.80
2018-12-02T05:16:12.446Z,4.30
2018-12-02T05:18:41.950Z,4.27
2018-12-02T05:21:13.928Z,5.73
2018-12-02T05:23:43.771Z,6.27
2018-12-02T05:26:13.837Z,6.13
2018-12-02T05:28:44.026Z,3.60
2018-12-02T05:31:13.906Z,3.27
2018-12-02T05:33:43.194Z,3.50
2018-12-02T05:36:13.478Z,2.50
2018-12-02T05:38:43.712Z,2.07
2018-12-02T05:41:13.542Z,2.70
2018-12-02T05:43:43.082Z,2.27
2018-12-02T05:46:13.649Z,2.83
2018-12-02T05:48:44.837Z,2.50
2018-12-02T05:51:14.095Z,2.10
2018-12-02T05:53:43.351Z,1.77
2018-12-02T05:56:13.116Z,1.77
2018-12-02T05:58:42.478Z,2.03
2018-12-02T06:01:13.171Z,2.70
2018-12-02T06:03:43.341Z,1.77
2018-12-02T06:06:12.911Z,2.70
2018-12-02T06:08:42.273Z,3.63
2018-12-02T06:11:11.571Z,2.80
2018-12-02T06:13:41.730Z,3.80
2018-12-02T06:16:12.081Z,3.90
2018-12-02T06:18:44.854Z,4.87
2018-12-02T06:21:14.530Z,3.73
2018-12-02T06:23:43.891Z,2.47
2018-12-02T06:26:13.195Z,3.40
2018-12-02T06:28:43.164Z,2.67
2018-12-02T06:31:13.713Z,3.30
2018-12-02T06:33:43.050Z,2.50
2018-12-02T06:36:13.340Z,2.67
2018-12-02T06:38:42.514Z,1.87
2018-12-02T06:41:11.853Z,1.90
2018-12-02T06:43:41.402Z,3.10
2018-12-02T06:46:11.899Z,1.93
2018-12-02T06:48:41.803Z,2.87
2018-12-02T06:51:12.174Z,2.10
2018-12-02T06:53:41.637Z,2.03
2018-12-02T06:56:34.693Z,2.03
2018-12-02T06:59:17.201Z,2.07
2018-12-02T07:02:03.800Z,1.90
2018-12-02T07:04:35.705Z,2.13
2018-12-02T07:07:05.272Z,2.33
2018-12-02T07:09:34.987Z,2.13
2018-12-02T07:12:07.108Z,2.30
2018-12-02T07:14:37.397Z,1.77
2018-12-02T07:17:07.049Z,3.00
2018-12-02T07:19:44.333Z,2.70
2018-12-02T07:22:21.952Z,4.37
2018-12-02T07:24:54.827Z,4.37
2018-12-02T07:27:25.244Z,3.50
2018-12-02T07:29:55.025Z,4.00
2018-12-02T07:32:25.992Z,3.33
2018-12-02T07:34:57.734Z,3.40
2018-12-02T07:37:27.005Z,4.33
2018-12-02T07:40:09.869Z,4.30
2018-12-02T07:42:40.710Z,4.60
2018-12-02T07:45:15.317Z,4.60
2018-12-02T07:47:45.658Z,3.67
2018-12-02T07:50:16.289Z,4.07
2018-12-02T07:52:46.043Z,8.60
2018-12-02T07:55:16.952Z,16.20
2018-12-02T07:57:48.617Z,13.00
2018-12-02T08:00:18.856Z,8.87
2018-12-02T08:02:50.396Z,5.90
2018-12-02T08:05:20.401Z,4.07
2018-12-02T08:07:53.028Z,3.60
2018-12-02T08:10:22.529Z,4.03
2018-12-02T08:12:52.966Z,4.47
2018-12-02T08:15:23.073Z,4.30
2018-12-02T08:17:52.730Z,3.70
2018-12-02T08:20:22.127Z,4.57
2018-12-02T08:22:52.267Z,3.53
2018-12-02T08:25:21.802Z,4.17
2018-12-02T08:27:52.192Z,4.70
2018-12-02T08:30:25.424Z,5.30
2018-12-02T08:32:57.840Z,4.90
2018-12-02T08:35:31.009Z,3.40
2018-12-02T08:38:01.758Z,3.00
2018-12-02T08:40:31.603Z,2.80
2018-12-02T08:43:01.937Z,3.97
2018-12-02T08:45:33.742Z,3.77
2018-12-02T08:48:03.541Z,6.17
2018-12-02T08:50:34.517Z,4.87
2018-12-02T08:53:04.070Z,4.67
2018-12-02T08:55:34.193Z,4.40
2018-12-02T08:58:04.040Z,4.60
2018-12-02T09:00:34.077Z,3.30
2018-12-02T09:03:05.517Z,4.77
2018-12-02T09:05:34.929Z,4.70
2018-12-02T09:08:06.507Z,5.10
2018-12-02T09:10:36.933Z,5.30
2018-12-02T09:13:08.406Z,5.40
2018-12-02T09:15:39.018Z,6.93
2018-12-02T09:18:10.391Z,6.77
2018-12-02T09:20:40.134Z,7.57
2018-12-02T09:23:14.075Z,7.30
2018-12-02T09:25:43.633Z,7.53
2018-12-02T09:28:14.718Z,8.20
2018-12-02T09:30:44.542Z,7.60
2018-12-02T09:33:14.157Z,8.17
2018-12-02T09:35:43.845Z,9.57
2018-12-02T09:38:14.335Z,8.10
2018-12-02T09:40:44.601Z,9.00
2018-12-02T09:43:14.278Z,8.00
2018-12-02T09:45:44.881Z,9.30
2018-12-02T09:48:14.726Z,8.53
2018-12-02T09:50:45.259Z,9.00
2018-12-02T09:53:17.718Z,8.43
2018-12-02T09:55:49.356Z,7.63
2018-12-02T09:58:26.712Z,8.23
2018-12-02T10:00:59.547Z,8.00
2018-12-02T10:03:30.459Z,8.30
2018-12-02T10:05:59.881Z,8.80
2018-12-02T10:08:30.236Z,8.67
2018-12-02T10:10:59.855Z,8.53
2018-12-02T10:13:31.671Z,7.60
2018-12-02T10:16:03.091Z,8.57
2018-12-02T10:18:34.893Z,9.03
2018-12-02T10:21:04.577Z,8.90
2018-12-02T10:23:33.840Z,8.73
2018-12-02T10:26:04.854Z,7.50
2018-12-02T10:28:35.734Z,6.40
2018-12-02T10:31:06.264Z,7.47
2018-12-02T10:33:35.817Z,8.87
2018-12-02T10:36:06.899Z,8.30
2018-12-02T10:38:37.555Z,7.93
2018-12-02T10:41:07.343Z,7.57
2018-12-02T10:43:37.591Z,7.80
2018-12-02T10:46:08.487Z,9.80
2018-12-02T10:48:39.818Z,9.80
2018-12-02T10:51:09.301Z,9.87
2018-12-02T10:53:38.660Z,8.30
2018-12-02T10:56:08.231Z,8.00
2018-12-02T10:58:37.719Z,9.53
2018-12-02T11:01:15.847Z,8.57
2018-12-02T11:03:45.560Z,8.90
2018-12-02T11:06:15.037Z,8.10
2018-12-02T11:08:44.862Z,8.00
2018-12-02T11:11:15.618Z,7.63
2018-12-02T11:13:45.813Z,6.57
2018-12-02T11:16:16.148Z,8.60
2018-12-02T11:18:45.760Z,9.63
2018-12-02T11:21:15.334Z,8.37
2018-12-02T11:23:45.566Z,8.10
2018-12-02T11:26:15.016Z,6.50
2018-12-02T11:28:45.856Z,6.80
2018-12-02T11:31:16.408Z,6.80
2018-12-02T11:33:45.777Z,6.90
2018-12-02T11:36:15.230Z,6.17
2018-12-02T11:38:44.688Z,7.00
2018-12-02T11:41:15.097Z,7.10
2018-12-02T11:43:44.686Z,6.63
2018-12-02T11:46:14.450Z,7.77
2018-12-02T11:48:43.821Z,8.63
2018-12-02T11:51:13.288Z,7.77
2018-12-02T11:53:43.293Z,6.87
2018-12-02T11:56:13.567Z,7.27
2018-12-02T11:58:43.057Z,7.73
2018-12-02T12:01:12.537Z,6.20
2018-12-02T12:03:42.999Z,6.47
2018-12-02T12:06:13.060Z,6.90
2018-12-02T12:08:43.412Z,6.70
2018-12-02T12:11:12.781Z,8.20
2018-12-02T12:13:42.486Z,8.20
2018-12-02T12:16:12.354Z,6.93
2018-12-02T12:18:41.639Z,7.00
2018-12-02T12:21:11.049Z,5.90
2018-12-02T12:23:40.690Z,5.87
2018-12-02T12:26:10.814Z,5.80
2018-12-02T12:28:40.777Z,7.23
2018-12-02T12:31:11.488Z,5.47
2018-12-02T12:33:40.815Z,5.97
2018-12-02T12:36:10.616Z,5.30
2018-12-02T12:38:41.702Z,5.03
2018-12-02T12:41:12.635Z,5.30
2018-12-02T12:43:42.692Z,5.17
2018-12-02T12:46:12.217Z,5.87
2018-12-02T12:48:43.378Z,5.90
2018-12-02T12:51:12.940Z,6.67
2018-12-02T12:53:45.220Z,6.20
2018-12-02T12:56:16.385Z,5.03
2018-12-02T12:58:46.164Z,6.73
2018-12-02T13:01:15.687Z,6.03
2018-12-02T13:03:45.894Z,5.63
2018-12-02T13:06:15.333Z,6.03
2018-12-02T13:08:45.387Z,6.00
2018-12-02T13:11:14.867Z,6.40
2018-12-02T13:13:45.057Z,5.80
2018-12-02T13:16:14.549Z,7.13
2018-12-02T13:18:45.434Z,7.60
2018-12-02T13:21:17.686Z,7.17
2018-12-02T13:23:48.170Z,5.57
2018-12-02T13:26:17.543Z,7.10
2018-12-02T13:28:47.008Z,8.53
2018-12-02T13:31:17.204Z,6.70
2018-12-02T13:33:46.819Z,5.90
2018-12-02T13:36:17.546Z,5.57
2018-12-02T13:38:47.158Z,5.73
2018-12-02T13:41:16.655Z,5.67
2018-12-02T13:43:45.945Z,5.23
2018-12-02T13:46:15.415Z,6.13
2018-12-02T13:48:46.143Z,5.30
2018-12-02T13:51:16.259Z,7.33
2018-12-02T13:53:50.829Z,5.40
2018-12-02T13:56:23.268Z,4.80
2018-12-02T13:58:54.235Z,5.10
2018-12-02T14:01:23.905Z,3.83
2018-12-02T14:03:54.431Z,5.33
2018-12-02T14:06:24.512Z,5.17
2018-12-02T14:08:55.464Z,6.13
2018-12-02T14:11:25.167Z,6.73
2018-12-02T14:13:55.078Z,7.63
2018-12-02T14:16:32.204Z,5.77
2018-12-02T14:19:04.781Z,5.90
2018-12-02T14:21:35.726Z,5.60
2018-12-02T14:24:07.617Z,5.80
2018-12-02T14:26:37.827Z,6.07
2018-12-02T14:29:17.304Z,5.60
2018-12-02T14:31:51.352Z,5.90
2018-12-02T14:34:22.059Z,6.10
2018-12-02T14:36:51.619Z,6.10
2018-12-02T14:39:21.305Z,5.80
2018-12-02T14:41:51.688Z,17.07
2018-12-02T14:44:22.080Z,12.60
2018-12-02T14:46:52.061Z,11.27
2018-12-02T14:49:21.476Z,10.90
2018-12-02T14:51:52.323Z,6.13
2018-12-02T14:54:22.102Z,7.33
2018-12-02T14:56:53.648Z,6.90
2018-12-02T14:59:23.048Z,5.30
2018-12-02T15:01:53.612Z,5.77
2018-12-02T15:04:23.164Z,5.40
2018-12-02T15:06:53.357Z,5.07
2018-12-02T15:09:23.385Z,5.13
2018-12-02T15:11:58.334Z,5.53
2018-12-02T15:14:28.238Z,6.03
2018-12-02T15:16:58.219Z,5.07
2018-12-02T15:19:27.851Z,5.80
2018-12-02T15:21:59.430Z,6.50
2018-12-02T15:24:29.204Z,8.97
2018-12-02T15:27:00.817Z,8.07
2018-12-02T15:29:30.702Z,9.30
2018-12-02T15:32:00.768Z,12.33
2018-12-02T15:34:32.258Z,11.60
2018-12-02T15:37:03.921Z,10.80
2018-12-02T15:39:34.693Z,9.37
2018-12-02T15:42:05.311Z,10.30
2018-12-02T15:44:36.567Z,10.23
2018-12-02T15:47:08.790Z,8.27
2018-12-02T15:49:38.228Z,6.60
2018-12-02T15:52:08.149Z,7.10
2018-12-02T15:54:37.478Z,6.13
2018-12-02T15:57:07.207Z,6.10
2018-12-02T15:59:36.604Z,6.77
2018-12-02T16:02:07.621Z,8.07
2018-12-02T16:04:38.276Z,7.30
2018-12-02T16:07:07.774Z,7.93
2018-12-02T16:09:37.845Z,11.40
2018-12-02T16:12:07.602Z,11.77
2018-12-02T16:14:37.548Z,11.60
2018-12-02T16:17:06.931Z,12.20
2018-12-02T16:19:37.815Z,11.57
2018-12-02T16:22:07.829Z,11.90
2018-12-02T16:24:42.101Z,8.20
2018-12-02T16:27:11.492Z,6.07
2018-12-02T16:29:41.640Z,4.70
2018-12-02T16:32:12.008Z,4.90
2018-12-02T16:34:41.595Z,5.97
2018-12-02T16:37:13.191Z,5.27
2018-12-02T16:39:42.572Z,6.00
2018-12-02T16:42:12.019Z,5.57
2018-12-02T16:44:41.297Z,4.90
2018-12-02T16:47:10.635Z,5.80
2018-12-02T16:49:40.124Z,5.30
2018-12-02T16:52:09.516Z,4.50
2018-12-02T16:54:40.279Z,4.57
2018-12-02T16:57:11.501Z,4.87
2018-12-02T16:59:42.055Z,5.40
2018-12-02T17:02:13.507Z,5.33
2018-12-02T17:04:43.625Z,6.20
2018-12-02T17:07:15.619Z,5.40
2018-12-02T17:09:45.335Z,5.33
2018-12-02T17:12:15.679Z,5.70
2018-12-02T17:14:46.262Z,5.60
2018-12-02T17:17:16.992Z,5.70
2018-12-02T17:19:48.234Z,5.57
2018-12-02T17:22:18.558Z,5.10
2018-12-02T17:24:49.065Z,4.23
2018-12-02T17:27:19.156Z,4.27
2018-12-02T17:29:53.017Z,7.33
2018-12-02T17:32:22.916Z,9.87
2018-12-02T17:34:53.462Z,8.90
2018-12-02T17:37:22.880Z,10.00
2018-12-02T17:39:54.844Z,8.70
2018-12-02T17:42:25.633Z,8.70
2018-12-02T17:44:55.655Z,7.57
2018-12-02T17:47:26.885Z,7.07
2018-12-02T17:49:56.434Z,8.17
2018-12-02T17:52:28.104Z,8.13
2018-12-02T17:54:57.748Z,11.23
2018-12-02T17:57:27.390Z,12.53
2018-12-02T17:59:57.874Z,13.53
2018-12-02T18:02:28.535Z,13.50
2018-12-02T18:04:58.023Z,9.20
2018-12-02T18:07:28.314Z,7.70
2018-12-02T18:09:59.186Z,7.33
2018-12-02T18:12:29.781Z,10.00
2018-12-02T18:15:00.903Z,8.20
2018-12-02T18:17:33.862Z,7.63
2018-12-02T18:20:03.635Z,6.33
2018-12-02T18:22:34.055Z,5.33
2018-12-02T18:25:04.674Z,5.23
2018-12-02T18:27:35.224Z,6.23
2018-12-02T18:30:07.907Z,13.70
2018-12-02T18:32:38.663Z,8.53
2018-12-02T18:37:22.856Z,7.90
2018-12-02T18:39:52.449Z,7.33
2018-12-02T18:42:22.459Z,7.80
2018-12-02T18:44:53.497Z,5.47
2018-12-02T18:47:22.971Z,6.57
2018-12-02T18:49:53.490Z,6.40
2018-12-02T18:52:24.059Z,6.20
2018-12-02T18:54:53.601Z,7.13
2018-12-02T18:57:23.419Z,5.47
2018-12-02T18:59:53.383Z,4.87
2018-12-02T19:02:23.725Z,5.10
2018-12-02T19:04:53.650Z,5.00
2018-12-02T19:07:25.796Z,4.70
2018-12-02T19:09:56.095Z,6.13
2018-12-02T19:12:27.324Z,5.93
2018-12-02T19:14:57.284Z,4.63
2018-12-02T19:17:26.583Z,4.67
2018-12-02T19:19:56.768Z,5.53
2018-12-02T19:22:27.252Z,4.70
2018-12-02T19:24:56.857Z,5.20
2018-12-02T19:27:26.185Z,5.57
2018-12-02T19:29:55.976Z,5.83
2018-12-02T19:32:27.536Z,6.17
2018-12-02T19:34:57.610Z,6.13
2018-12-02T19:37:28.725Z,6.53
2018-12-02T19:39:59.287Z,7.70
2018-12-02T19:42:29.364Z,8.77
2018-12-02T19:44:59.504Z,12.73
2018-12-02T19:47:29.171Z,12.33
2018-12-02T19:49:58.955Z,13.30
2018-12-02T19:52:30.026Z,10.27
2018-12-02T19:55:00.367Z,10.43
2018-12-02T19:57:29.903Z,7.87
2018-12-02T20:00:00.634Z,7.43
2018-12-02T20:02:31.428Z,6.30
2018-12-02T20:05:02.658Z,4.97
2018-12-02T20:07:34.443Z,6.33
2018-12-02T20:10:05.163Z,6.63
2018-12-02T20:12:35.684Z,7.37
2018-12-02T20:15:06.535Z,8.30
2018-12-02T20:17:37.618Z,6.20
2018-12-02T20:20:23.049Z,6.33
2018-12-02T20:22:57.659Z,7.67
2018-12-02T20:25:28.048Z,7.50
2018-12-02T20:28:01.285Z,6.47
2018-12-02T20:30:33.363Z,6.70
2018-12-02T20:33:03.445Z,6.27
2018-12-02T20:35:34.050Z,8.30
2018-12-02T20:38:05.439Z,12.67
2018-12-02T20:40:36.076Z,10.67
2018-12-02T20:43:06.693Z,7.17
2018-12-02T20:45:38.335Z,6.73
2018-12-02T20:48:09.973Z,7.27
2018-12-02T20:50:39.545Z,7.23
2018-12-02T20:53:09.278Z,6.57
2018-12-02T20:55:42.232Z,5.67
2018-12-02T20:58:13.120Z,4.30
2018-12-02T21:00:43.463Z,5.03
2018-12-02T21:03:14.925Z,4.40
2018-12-02T21:05:47.542Z,5.10
2018-12-02T21:08:17.898Z,5.30
2018-12-02T21:10:47.772Z,3.73
2018-12-02T21:13:17.371Z,4.20
2018-12-02T21:15:47.324Z,4.37
2018-12-02T21:18:17.968Z,3.93
2018-12-02T21:20:49.016Z,4.90
2018-12-02T21:23:18.436Z,4.93
2018-12-02T21:25:48.816Z,5.50
2018-12-02T21:28:20.593Z,4.50
2018-12-02T21:30:50.632Z,4.40
2018-12-02T21:33:20.133Z,4.23
2018-12-02T21:35:49.932Z,5.00
2018-12-02T21:38:19.867Z,4.80
2018-12-02T21:40:49.306Z,4.27
2018-12-02T21:43:18.752Z,5.07
2018-12-02T21:45:49.170Z,4.60
2018-12-02T21:48:20.567Z,3.87
2018-12-02T21:50:53.539Z,4.33
2018-12-02T21:53:23.027Z,3.57
2018-12-02T21:55:53.503Z,3.80
2018-12-02T21:58:23.121Z,4.67
2018-12-02T22:00:57.560Z,4.20
2018-12-02T22:03:26.989Z,4.43
2018-12-02T22:05:56.686Z,5.10
2018-12-02T22:08:26.308Z,5.93
2018-12-02T22:10:55.774Z,4.57
2018-12-02T22:13:25.197Z,4.80
2018-12-02T22:15:57.292Z,5.57
2018-12-02T22:18:26.992Z,5.10
2018-12-02T22:20:57.220Z,5.17
2018-12-02T22:23:26.854Z,4.00
2018-12-02T22:25:56.637Z,5.10
2018-12-02T22:28:27.212Z,4.40
2018-12-02T22:30:57.498Z,7.30
2018-12-02T22:33:26.858Z,5.47
2018-12-02T22:35:56.576Z,4.90
2018-12-02T22:38:26.077Z,5.57
2018-12-02T22:40:55.571Z,4.70
2018-12-02T22:43:25.053Z,5.03
2018-12-02T22:45:54.471Z,5.90
2018-12-02T22:48:24.141Z,5.40
2018-12-02T22:50:53.843Z,5.60
2018-12-02T22:53:23.634Z,5.73
2018-12-02T22:55:52.643Z,6.17
2018-12-02T22:58:22.183Z,5.83
2018-12-02T23:00:56.633Z,5.87
2018-12-02T23:03:25.964Z,6.37
2018-12-02T23:05:56.402Z,6.60
2018-12-02T23:08:26.116Z,5.93
2018-12-02T23:10:55.828Z,5.47
2018-12-02T23:13:25.283Z,4.77
2018-12-02T23:15:55.245Z,4.67
2018-12-02T23:18:25.052Z,4.17
2018-12-02T23:20:54.561Z,4.17
2018-12-02T23:23:23.966Z,4.50
2018-12-02T23:25:53.563Z,4.07
2018-12-02T23:28:22.883Z,4.23
2018-12-02T23:30:52.589Z,3.90
2018-12-02T23:33:21.897Z,4.67
2018-12-02T23:35:51.555Z,4.00
2018-12-02T23:38:20.867Z,4.73
2018-12-02T23:40:50.271Z,6.47
2018-12-02T23:43:19.723Z,8.30
2018-12-02T23:45:49.085Z,6.93
2018-12-02T23:48:18.669Z,7.93
2018-12-02T23:50:48.103Z,8.77
2018-12-02T23:53:19.119Z,7.57
2018-12-02T23:55:48.672Z,6.40
2018-12-02T23:58:17.972Z,6.57
